createdAt,value
2019-02-25T00:00:35.939Z,55.14
2019-02-25T00:01:35.929Z,55.14
2019-02-25T00:02:35.917Z,54.93
2019-02-25T00:03:35.907Z,55.66
2019-02-25T00:04:35.948Z,55.24
2019-02-25T00:05:35.887Z,55.14
2019-02-25T00:06:35.881Z,54.83
2019-02-25T00:07:35.865Z,54.08
2019-02-25T00:08:35.858Z,53.79
2019-02-25T00:09:35.844Z,54.83
2019-02-25T00:10:35.877Z,54.21
2019-02-25T00:11:35.827Z,52.75
2019-02-25T00:12:35.812Z,53.48
2019-02-25T00:13:35.802Z,53.16
2019-02-25T00:14:35.793Z,52.20
2019-02-25T00:15:35.780Z,53.35
2019-02-25T00:16:35.783Z,52.75
2019-02-25T00:17:35.763Z,54.31
2019-02-25T00:18:35.754Z,51.92
2019-02-25T00:19:35.738Z,52.00
2019-02-25T00:20:35.728Z,50.75
2019-02-25T00:21:35.719Z,51.79
2019-02-25T00:22:35.745Z,52.10
2019-02-25T00:23:35.697Z,51.89
2019-02-25T00:24:35.687Z,52.00
2019-02-25T00:25:42.718Z,50.54
2019-02-25T00:26:35.668Z,50.62
2019-02-25T00:27:35.660Z,50.73
2019-02-25T00:28:35.693Z,51.45
2019-02-25T00:29:35.636Z,51.68
2019-02-25T00:30:35.659Z,52.10
2019-02-25T00:31:35.614Z,52.20
2019-02-25T00:32:35.603Z,51.81
2019-02-25T00:33:35.628Z,52.64
2019-02-25T00:34:35.664Z,52.44
2019-02-25T00:35:35.575Z,52.54
2019-02-25T00:36:35.598Z,51.17
2019-02-25T00:37:35.563Z,51.68
2019-02-25T00:38:35.550Z,52.51
2019-02-25T00:39:35.535Z,53.03
2019-02-25T00:40:35.575Z,53.14
2019-02-25T00:41:35.515Z,52.02
2019-02-25T00:42:35.530Z,50.96
2019-02-25T00:43:35.492Z,51.17
2019-02-25T00:44:35.496Z,51.89
2019-02-25T00:45:35.467Z,52.44
2019-02-25T00:46:35.521Z,51.81
2019-02-25T00:47:35.460Z,51.71
2019-02-25T00:48:35.448Z,52.20
2019-02-25T00:49:35.445Z,51.89
2019-02-25T00:50:35.410Z,52.23
2019-02-25T00:51:35.407Z,51.92
2019-02-25T00:52:35.463Z,52.02
2019-02-25T00:53:35.387Z,52.02
2019-02-25T00:54:35.374Z,52.02
2019-02-25T00:55:35.373Z,52.23
2019-02-25T00:56:35.358Z,51.92
2019-02-25T00:57:35.365Z,52.12
2019-02-25T00:58:35.404Z,52.02
2019-02-25T00:59:35.326Z,52.46
2019-02-25T01:00:35.320Z,52.25
2019-02-25T01:01:35.313Z,52.54
2019-02-25T01:02:35.291Z,52.33
2019-02-25T01:03:35.291Z,51.71
2019-02-25T01:04:35.355Z,51.27
2019-02-25T01:05:35.256Z,51.27
2019-02-25T01:06:35.259Z,52.20
2019-02-25T01:07:35.253Z,52.12
2019-02-25T01:08:35.227Z,52.02
2019-02-25T01:09:35.221Z,51.92
2019-02-25T01:10:35.274Z,52.12
2019-02-25T01:11:35.195Z,52.23
2019-02-25T01:12:35.192Z,52.64
2019-02-25T01:13:35.185Z,53.16
2019-02-25T01:14:35.195Z,53.08
2019-02-25T01:15:35.154Z,52.87
2019-02-25T01:16:35.168Z,52.98
2019-02-25T01:17:35.128Z,53.19
2019-02-25T01:18:35.134Z,53.50
2019-02-25T01:19:35.106Z,53.92
2019-02-25T01:20:35.103Z,54.36
2019-02-25T01:21:35.121Z,54.02
2019-02-25T01:22:35.179Z,54.02
2019-02-25T01:23:35.066Z,53.08
2019-02-25T01:24:35.058Z,53.71
2019-02-25T01:25:35.059Z,54.25
2019-02-25T01:26:35.057Z,53.94
2019-02-25T01:27:35.030Z,54.67
2019-02-25T01:28:35.073Z,54.46
2019-02-25T01:29:35.020Z,54.88
2019-02-25T01:30:35.002Z,54.88
2019-02-25T01:31:34.985Z,54.36
2019-02-25T01:32:35.007Z,54.46
2019-02-25T01:33:34.984Z,55.32
2019-02-25T01:34:35.037Z,55.11
2019-02-25T01:35:34.937Z,55.11
2019-02-25T01:36:34.940Z,55.43
2019-02-25T01:37:34.927Z,55.32
2019-02-25T01:38:34.905Z,55.53
2019-02-25T01:39:34.896Z,55.32
2019-02-25T01:40:34.924Z,55.53
2019-02-25T01:41:34.889Z,55.63
2019-02-25T01:42:34.874Z,55.43
2019-02-25T01:43:34.857Z,55.32
2019-02-25T01:44:34.869Z,55.94
2019-02-25T01:45:34.838Z,57.30
2019-02-25T01:46:34.873Z,57.01
2019-02-25T01:47:34.829Z,57.12
2019-02-25T01:48:34.832Z,55.53
2019-02-25T01:49:34.793Z,55.35
2019-02-25T01:50:34.806Z,55.11
2019-02-25T01:51:34.777Z,55.01
2019-02-25T01:52:34.831Z,55.04
2019-02-25T01:53:34.771Z,55.84
2019-02-25T01:54:34.752Z,56.15
2019-02-25T01:55:34.731Z,56.60
2019-02-25T01:56:34.720Z,55.76
2019-02-25T01:57:34.713Z,56.39
2019-02-25T01:58:34.739Z,57.01
2019-02-25T01:59:34.711Z,57.75
2019-02-25T02:00:34.688Z,56.41
2019-02-25T02:01:34.678Z,57.04
2019-02-25T02:02:34.675Z,57.69
2019-02-25T02:03:34.655Z,58.18
2019-02-25T02:04:34.665Z,57.67
2019-02-25T02:05:34.632Z,57.98
2019-02-25T02:06:34.610Z,57.56
2019-02-25T02:07:34.613Z,57.87
2019-02-25T02:08:34.598Z,57.35
2019-02-25T02:09:34.589Z,57.77
2019-02-25T02:10:34.613Z,57.48
2019-02-25T02:11:34.578Z,56.65
2019-02-25T02:12:34.566Z,57.59
2019-02-25T02:13:34.558Z,57.90
2019-02-25T02:14:34.546Z,57.28
2019-02-25T02:15:34.523Z,57.59
2019-02-25T02:16:34.533Z,58.22
2019-02-25T02:17:34.517Z,57.90
2019-02-25T02:18:34.509Z,57.59
2019-02-25T02:19:34.480Z,56.02
2019-02-25T02:20:34.498Z,58.01
2019-02-25T02:21:34.459Z,57.69
2019-02-25T02:22:34.464Z,57.48
2019-02-25T02:23:34.447Z,56.76
2019-02-25T02:24:34.456Z,57.69
2019-02-25T02:25:34.426Z,56.96
2019-02-25T02:26:34.435Z,57.28
2019-02-25T02:27:34.410Z,58.42
2019-02-25T02:28:34.413Z,58.24
2019-02-25T02:29:34.393Z,58.14
2019-02-25T02:30:34.392Z,58.34
2019-02-25T02:31:34.368Z,59.18
2019-02-25T02:32:34.348Z,57.93
2019-02-25T02:33:34.349Z,58.97
2019-02-25T02:34:34.440Z,58.87
2019-02-25T02:35:34.339Z,59.59
2019-02-25T02:36:34.305Z,59.59
2019-02-25T02:37:34.309Z,59.08
2019-02-25T02:38:34.302Z,58.97
2019-02-25T02:39:34.285Z,59.52
2019-02-25T02:40:34.390Z,59.81
2019-02-25T02:41:34.272Z,59.81
2019-02-25T02:42:34.246Z,60.15
2019-02-25T02:43:34.232Z,60.67
2019-02-25T02:44:34.236Z,60.88
2019-02-25T02:45:34.217Z,60.98
2019-02-25T02:46:34.327Z,61.32
2019-02-25T02:47:34.197Z,62.16
2019-02-25T02:48:34.203Z,62.58
2019-02-25T02:49:34.169Z,62.37
2019-02-25T02:50:34.191Z,61.43
2019-02-25T02:51:34.150Z,61.95
2019-02-25T02:52:34.155Z,61.01
2019-02-25T02:53:34.168Z,61.30
2019-02-25T02:54:34.130Z,61.82
2019-02-25T02:55:34.130Z,61.61
2019-02-25T02:56:34.117Z,61.71
2019-02-25T02:57:34.104Z,62.02
2019-02-25T02:58:34.102Z,61.19
2019-02-25T02:59:34.098Z,61.61
2019-02-25T03:00:34.057Z,61.71
2019-02-25T03:01:34.046Z,62.13
2019-02-25T03:02:34.033Z,62.65
2019-02-25T03:03:34.039Z,62.55
2019-02-25T03:04:34.046Z,62.96
2019-02-25T03:05:34.036Z,62.37
2019-02-25T03:06:34.008Z,62.65
2019-02-25T03:07:34.004Z,61.92
2019-02-25T03:08:33.979Z,62.05
2019-02-25T03:09:33.966Z,62.37
2019-02-25T03:10:34.085Z,62.68
2019-02-25T03:11:33.964Z,62.58
2019-02-25T03:12:33.935Z,62.37
2019-02-25T03:13:33.933Z,62.37
2019-02-25T03:14:33.915Z,62.92
2019-02-25T03:15:33.921Z,62.58
2019-02-25T03:16:34.004Z,63.44
2019-02-25T03:17:33.890Z,62.82
2019-02-25T03:18:33.876Z,62.40
2019-02-25T03:19:33.862Z,62.29
2019-02-25T03:20:33.864Z,61.88
2019-02-25T03:21:33.841Z,62.71
2019-02-25T03:22:33.886Z,62.60
2019-02-25T03:23:33.825Z,62.40
2019-02-25T03:24:33.812Z,63.34
2019-02-25T03:25:33.812Z,63.55
2019-02-25T03:26:33.796Z,63.13
2019-02-25T03:27:33.784Z,62.82
2019-02-25T03:28:33.780Z,62.50
2019-02-25T03:29:33.754Z,62.29
2019-02-25T03:30:33.774Z,62.71
2019-02-25T03:31:33.730Z,62.92
2019-02-25T03:32:33.732Z,62.95
2019-02-25T03:33:33.722Z,63.55
2019-02-25T03:34:33.754Z,63.86
2019-02-25T03:35:33.690Z,63.76
2019-02-25T03:36:33.684Z,63.65
2019-02-25T03:37:33.676Z,62.71
2019-02-25T03:38:33.665Z,63.34
2019-02-25T03:39:33.665Z,63.86
2019-02-25T03:40:33.767Z,64.70
2019-02-25T03:41:33.626Z,64.70
2019-02-25T03:42:33.648Z,63.34
2019-02-25T03:43:33.635Z,64.31
2019-02-25T03:44:33.597Z,64.00
2019-02-25T03:45:33.587Z,65.36
2019-02-25T03:46:33.603Z,64.83
2019-02-25T03:47:33.571Z,64.41
2019-02-25T03:48:33.559Z,64.10
2019-02-25T03:49:33.542Z,64.44
2019-02-25T03:50:33.553Z,65.17
2019-02-25T03:51:33.522Z,65.28
2019-02-25T03:52:33.540Z,64.86
2019-02-25T03:53:33.510Z,64.76
2019-02-25T03:54:33.507Z,65.17
2019-02-25T03:55:33.483Z,65.07
2019-02-25T03:56:33.485Z,64.44
2019-02-25T03:57:33.475Z,64.62
2019-02-25T03:58:33.491Z,64.41
2019-02-25T03:59:33.463Z,64.73
2019-02-25T04:00:33.488Z,64.00
2019-02-25T04:01:33.422Z,63.57
2019-02-25T04:02:33.411Z,63.57
2019-02-25T04:03:33.413Z,63.79
2019-02-25T04:04:33.416Z,63.65
2019-02-25T04:05:33.379Z,63.57
2019-02-25T04:06:33.365Z,63.37
2019-02-25T04:07:33.359Z,63.57
2019-02-25T04:08:33.347Z,63.68
2019-02-25T04:09:33.355Z,63.23
2019-02-25T04:10:33.383Z,63.02
2019-02-25T04:11:33.329Z,62.50
2019-02-25T04:12:33.311Z,62.08
2019-02-25T04:13:33.315Z,63.06
2019-02-25T04:14:33.296Z,62.19
2019-02-25T04:15:33.291Z,62.71
2019-02-25T04:16:33.298Z,63.06
2019-02-25T04:17:33.263Z,62.95
2019-02-25T04:18:33.262Z,63.06
2019-02-25T04:19:33.234Z,63.79
2019-02-25T04:20:33.240Z,63.57
2019-02-25T04:21:33.228Z,64.03
2019-02-25T04:22:33.213Z,64.23
2019-02-25T04:23:33.197Z,63.71
2019-02-25T04:24:33.187Z,63.92
2019-02-25T04:25:33.170Z,63.60
2019-02-25T04:26:33.167Z,63.60
2019-02-25T04:27:33.159Z,63.18
2019-02-25T04:28:33.150Z,63.29
2019-02-25T04:29:33.142Z,63.29
2019-02-25T04:30:33.122Z,62.98
2019-02-25T04:31:33.116Z,63.40
2019-02-25T04:32:33.112Z,62.95
2019-02-25T04:33:33.093Z,63.29
2019-02-25T04:34:33.113Z,63.29
2019-02-25T04:35:33.100Z,63.60
2019-02-25T04:36:33.058Z,63.50
2019-02-25T04:37:33.052Z,63.60
2019-02-25T04:38:33.037Z,63.81
2019-02-25T04:39:33.042Z,63.92
2019-02-25T04:40:33.039Z,64.13
2019-02-25T04:41:33.020Z,63.60
2019-02-25T04:42:32.997Z,63.81
2019-02-25T04:43:33.274Z,63.81
2019-02-25T04:44:32.991Z,63.60
2019-02-25T04:45:32.970Z,64.03
2019-02-25T04:46:32.969Z,64.23
2019-02-25T04:47:32.953Z,64.78
2019-02-25T04:48:32.953Z,65.00
2019-02-25T04:49:32.927Z,65.00
2019-02-25T04:50:32.916Z,64.78
2019-02-25T04:51:32.914Z,64.37
2019-02-25T04:52:32.927Z,64.78
2019-02-25T04:53:32.911Z,64.78
2019-02-25T04:54:32.877Z,64.47
2019-02-25T04:55:32.999Z,64.47
2019-02-25T04:56:32.855Z,64.47
2019-02-25T04:57:32.841Z,64.26
2019-02-25T04:58:32.847Z,64.50
2019-02-25T04:59:32.831Z,65.10
2019-02-25T05:00:32.814Z,65.10
2019-02-25T05:01:32.821Z,65.31
2019-02-25T05:02:32.787Z,65.13
2019-02-25T05:03:32.790Z,65.76
2019-02-25T05:04:32.781Z,66.25
2019-02-25T05:05:32.755Z,66.49
2019-02-25T05:06:32.754Z,66.17
2019-02-25T05:07:32.767Z,66.07
2019-02-25T05:08:32.740Z,66.80
2019-02-25T05:09:32.740Z,66.17
2019-02-25T05:10:32.720Z,66.39
2019-02-25T05:11:32.697Z,66.70
2019-02-25T05:12:32.685Z,66.94
2019-02-25T05:13:32.668Z,66.52
2019-02-25T05:14:32.662Z,67.25
2019-02-25T05:15:32.668Z,67.57
2019-02-25T05:16:32.759Z,66.94
2019-02-25T05:17:32.659Z,67.25
2019-02-25T05:18:32.644Z,67.46
2019-02-25T05:19:32.618Z,67.25
2019-02-25T05:20:32.614Z,67.36
2019-02-25T05:21:32.621Z,67.25
2019-02-25T05:22:32.611Z,67.25
2019-02-25T05:23:32.580Z,67.25
2019-02-25T05:24:32.587Z,66.83
2019-02-25T05:25:32.569Z,66.73
2019-02-25T05:26:32.551Z,66.83
2019-02-25T05:27:32.552Z,66.52
2019-02-25T05:28:32.550Z,66.42
2019-02-25T05:29:32.510Z,65.97
2019-02-25T05:30:32.528Z,66.83
2019-02-25T05:31:32.503Z,66.52
2019-02-25T05:32:32.507Z,66.17
2019-02-25T05:33:32.500Z,65.76
2019-02-25T05:34:32.497Z,65.55
2019-02-25T05:35:32.462Z,65.55
2019-02-25T05:36:32.437Z,65.34
2019-02-25T05:37:32.430Z,65.52
2019-02-25T05:38:32.441Z,65.41
2019-02-25T05:39:32.420Z,65.62
2019-02-25T05:40:32.433Z,65.52
2019-02-25T05:41:32.391Z,65.41
2019-02-25T05:42:32.385Z,65.52
2019-02-25T05:43:32.376Z,65.20
2019-02-25T05:44:32.358Z,65.31
2019-02-25T05:45:32.359Z,65.10
2019-02-25T05:46:32.458Z,64.47
2019-02-25T05:47:32.370Z,64.78
2019-02-25T05:48:32.322Z,63.45
2019-02-25T05:49:32.339Z,63.42
2019-02-25T05:50:32.297Z,64.68
2019-02-25T05:51:32.298Z,64.15
2019-02-25T05:52:32.303Z,63.95
2019-02-25T05:53:32.264Z,64.50
2019-02-25T05:54:32.274Z,64.78
2019-02-25T05:55:32.244Z,65.13
2019-02-25T05:56:32.257Z,65.34
2019-02-25T05:57:32.292Z,65.55
2019-02-25T05:58:32.234Z,65.65
2019-02-25T05:59:32.205Z,65.23
2019-02-25T06:00:32.189Z,66.17
2019-02-25T06:01:32.189Z,65.23
2019-02-25T06:02:32.183Z,65.03
2019-02-25T06:03:32.166Z,64.50
2019-02-25T06:04:32.180Z,64.40
2019-02-25T06:05:32.147Z,64.81
2019-02-25T06:06:32.141Z,64.18
2019-02-25T06:07:32.131Z,64.81
2019-02-25T06:08:32.110Z,65.13
2019-02-25T06:09:32.115Z,65.65
2019-02-25T06:10:32.165Z,65.34
2019-02-25T06:11:32.121Z,65.23
2019-02-25T06:12:32.070Z,65.23
2019-02-25T06:13:32.055Z,64.71
2019-02-25T06:14:32.095Z,64.50
2019-02-25T06:15:32.056Z,64.81
2019-02-25T06:16:32.061Z,65.03
2019-02-25T06:17:32.037Z,64.92
2019-02-25T06:18:32.033Z,64.92
2019-02-25T06:19:31.994Z,64.61
2019-02-25T06:20:31.987Z,64.50
2019-02-25T06:21:31.977Z,64.81
2019-02-25T06:22:31.979Z,64.05
2019-02-25T06:23:31.977Z,64.05
2019-02-25T06:24:31.952Z,64.78
2019-02-25T06:26:25.237Z,64.58
2019-02-25T06:27:30.654Z,64.89
2019-02-25T06:28:26.227Z,64.58
2019-02-25T06:29:25.202Z,64.78
2019-02-25T06:30:25.194Z,64.76
2019-02-25T06:31:25.182Z,64.68
2019-02-25T06:32:25.203Z,64.44
2019-02-25T06:33:25.162Z,64.47
2019-02-25T06:34:25.245Z,64.76
2019-02-25T06:35:25.148Z,64.34
2019-02-25T06:36:25.127Z,64.23
2019-02-25T06:37:25.121Z,64.76
2019-02-25T06:38:25.113Z,64.62
2019-02-25T06:39:25.102Z,63.81
2019-02-25T06:40:25.111Z,64.10
2019-02-25T06:41:25.083Z,63.37
2019-02-25T06:42:25.071Z,63.06
2019-02-25T06:43:25.060Z,63.37
2019-02-25T06:44:25.050Z,63.06
2019-02-25T06:45:25.040Z,62.84
2019-02-25T06:46:25.133Z,62.95
2019-02-25T06:47:25.017Z,63.13
2019-02-25T06:48:25.007Z,63.16
2019-02-25T06:49:24.999Z,62.92
2019-02-25T06:50:24.985Z,62.40
2019-02-25T06:51:24.975Z,62.71
2019-02-25T06:52:24.979Z,62.40
2019-02-25T06:53:24.959Z,62.82
2019-02-25T06:54:24.950Z,62.82
2019-02-25T06:55:24.934Z,62.92
2019-02-25T06:56:24.924Z,62.29
2019-02-25T06:57:24.913Z,62.05
2019-02-25T06:58:24.924Z,61.66
2019-02-25T06:59:25.576Z,61.74
2019-02-25T07:00:24.882Z,60.67
2019-02-25T07:01:24.875Z,59.94
2019-02-25T07:02:24.865Z,59.70
2019-02-25T07:03:24.851Z,59.05
2019-02-25T07:04:24.855Z,58.29
2019-02-25T07:05:24.834Z,57.75
2019-02-25T07:06:24.824Z,57.12
2019-02-25T07:07:24.812Z,57.43
2019-02-25T07:08:24.801Z,56.57
2019-02-25T07:09:24.788Z,56.91
2019-02-25T07:10:24.794Z,57.01
2019-02-25T07:11:24.765Z,57.98
2019-02-25T07:12:24.753Z,57.64
2019-02-25T07:13:24.743Z,57.30
2019-02-25T07:14:24.743Z,56.02
2019-02-25T07:15:24.727Z,55.61
2019-02-25T07:16:24.734Z,55.69
2019-02-25T07:17:24.705Z,54.83
2019-02-25T07:18:24.693Z,54.52
2019-02-25T07:19:24.682Z,54.62
2019-02-25T07:20:24.676Z,54.72
2019-02-25T07:21:24.660Z,54.41
2019-02-25T07:22:24.666Z,54.10
2019-02-25T07:23:24.641Z,54.21
2019-02-25T07:24:24.636Z,53.92
2019-02-25T07:25:24.620Z,54.72
2019-02-25T07:26:24.611Z,54.00
2019-02-25T07:27:24.598Z,53.81
2019-02-25T07:28:24.611Z,53.69
2019-02-25T07:29:24.579Z,54.00
2019-02-25T07:30:24.569Z,54.08
2019-02-25T07:31:24.556Z,53.11
2019-02-25T07:32:24.546Z,53.25
2019-02-25T07:33:24.539Z,52.72
2019-02-25T07:34:24.557Z,52.75
2019-02-25T07:35:25.846Z,54.10
2019-02-25T07:36:24.508Z,53.97
2019-02-25T07:37:24.502Z,53.53
2019-02-25T07:38:24.484Z,53.09
2019-02-25T07:39:24.473Z,51.61
2019-02-25T07:40:24.492Z,51.48
2019-02-25T07:41:24.454Z,48.95
2019-02-25T07:42:24.443Z,49.65
2019-02-25T07:43:24.431Z,48.72
2019-02-25T07:44:24.421Z,49.16
2019-02-25T07:45:24.408Z,49.11
2019-02-25T07:46:24.495Z,48.39
2019-02-25T07:47:24.389Z,48.03
2019-02-25T07:48:24.376Z,46.69
2019-02-25T07:49:24.367Z,47.87
2019-02-25T07:50:24.357Z,47.87
2019-02-25T07:51:24.347Z,48.28
2019-02-25T07:52:24.360Z,48.49
2019-02-25T07:53:24.326Z,47.64
2019-02-25T07:54:24.321Z,46.79
2019-02-25T07:55:24.305Z,46.48
2019-02-25T07:56:24.296Z,46.62
2019-02-25T07:57:24.285Z,45.30
2019-02-25T07:58:24.284Z,46.56
2019-02-25T07:59:24.258Z,45.59
2019-02-25T08:00:24.251Z,43.89
2019-02-25T08:01:24.238Z,43.79
2019-02-25T08:02:24.230Z,44.26
2019-02-25T08:03:24.219Z,42.93
2019-02-25T08:04:24.222Z,42.47
2019-02-25T08:05:24.201Z,41.63
2019-02-25T08:06:24.188Z,42.16
2019-02-25T08:07:24.174Z,41.01
2019-02-25T08:08:24.164Z,40.91
2019-02-25T08:09:24.155Z,40.89
2019-02-25T08:10:24.161Z,40.25
2019-02-25T08:11:24.132Z,40.15
2019-02-25T08:12:24.174Z,39.63
2019-02-25T08:13:24.113Z,39.63
2019-02-25T08:14:24.102Z,39.82
2019-02-25T08:15:24.090Z,39.80
2019-02-25T08:16:24.098Z,39.61
2019-02-25T08:17:24.071Z,40.05
2019-02-25T08:18:24.060Z,40.35
2019-02-25T08:19:24.049Z,40.15
2019-02-25T08:20:24.036Z,40.54
2019-02-25T08:21:24.023Z,39.59
2019-02-25T08:22:24.027Z,39.90
2019-02-25T08:23:24.001Z,39.66
2019-02-25T08:24:30.361Z,37.73
2019-02-25T08:25:24.981Z,39.50
2019-02-25T08:26:23.969Z,38.55
2019-02-25T08:27:23.959Z,38.32
2019-02-25T08:28:23.963Z,38.10
2019-02-25T08:29:23.937Z,37.59
2019-02-25T08:30:23.933Z,37.57
2019-02-25T08:31:23.918Z,37.24
2019-02-25T08:32:23.940Z,36.94
2019-02-25T08:33:23.895Z,38.15
2019-02-25T08:34:23.895Z,36.10
2019-02-25T08:35:23.877Z,36.58
2019-02-25T08:36:23.866Z,35.76
2019-02-25T08:37:23.858Z,35.93
2019-02-25T08:38:23.842Z,36.27
2019-02-25T08:39:23.830Z,35.95
2019-02-25T08:40:23.834Z,35.14
2019-02-25T08:41:23.807Z,36.07
2019-02-25T08:42:23.797Z,36.68
2019-02-25T08:43:23.791Z,36.94
2019-02-25T08:44:23.778Z,34.72
2019-02-25T08:45:23.766Z,35.33
2019-02-25T08:46:23.772Z,36.38
2019-02-25T08:47:23.746Z,37.16
2019-02-25T08:48:23.737Z,34.50
2019-02-25T08:49:23.724Z,36.49
2019-02-25T08:50:23.717Z,37.06
2019-02-25T08:51:23.698Z,40.19
2019-02-25T08:52:23.789Z,41.74
2019-02-25T08:53:23.680Z,41.14
2019-02-25T08:54:23.685Z,41.16
2019-02-25T08:55:23.660Z,41.89
2019-02-25T08:56:23.650Z,42.58
2019-02-25T08:57:23.638Z,41.28
2019-02-25T08:58:23.644Z,40.20
2019-02-25T08:59:23.616Z,39.20
2019-02-25T09:00:23.607Z,40.10
2019-02-25T09:01:23.597Z,40.19
2019-02-25T09:02:23.584Z,39.30
2019-02-25T09:03:23.574Z,40.03
2019-02-25T09:04:23.578Z,40.57
2019-02-25T09:05:23.555Z,41.56
2019-02-25T09:06:23.545Z,41.41
2019-02-25T09:07:23.529Z,39.11
2019-02-25T09:08:23.519Z,37.35
2019-02-25T09:09:23.511Z,38.17
2019-02-25T09:10:23.513Z,37.98
2019-02-25T09:11:23.487Z,39.41
2019-02-25T09:12:23.478Z,38.51
2019-02-25T09:13:23.922Z,38.84
2019-02-25T09:14:23.463Z,40.44
2019-02-25T09:15:23.453Z,36.99
2019-02-25T09:16:23.463Z,36.14
2019-02-25T09:17:23.424Z,36.29
2019-02-25T09:18:23.416Z,34.75
2019-02-25T09:19:23.401Z,34.53
2019-02-25T09:20:23.395Z,34.92
2019-02-25T09:21:31.659Z,34.41
2019-02-25T09:22:24.388Z,34.19
2019-02-25T09:23:23.360Z,33.66
2019-02-25T09:24:23.350Z,33.95
2019-02-25T09:25:23.339Z,33.97
2019-02-25T09:26:23.331Z,33.97
2019-02-25T09:27:23.315Z,35.47
2019-02-25T09:28:23.321Z,35.27
2019-02-25T09:29:23.296Z,34.27
2019-02-25T09:30:23.286Z,33.59
2019-02-25T09:31:23.291Z,34.34
2019-02-25T09:32:23.264Z,35.69
2019-02-25T09:33:23.251Z,35.90
2019-02-25T09:34:23.257Z,35.25
2019-02-25T09:35:23.228Z,35.34
2019-02-25T09:36:23.219Z,33.59
2019-02-25T09:37:23.214Z,35.49
2019-02-25T09:38:23.700Z,35.21
2019-02-25T09:39:23.187Z,34.17
2019-02-25T09:40:23.255Z,34.34
2019-02-25T09:41:29.699Z,35.51
2019-02-25T09:42:24.156Z,33.11
2019-02-25T09:43:23.145Z,31.96
2019-02-25T09:44:23.136Z,33.40
2019-02-25T09:45:23.123Z,33.07
2019-02-25T09:46:23.142Z,32.99
2019-02-25T09:47:23.100Z,32.89
2019-02-25T09:48:23.091Z,34.09
2019-02-25T09:49:23.081Z,31.67
2019-02-25T09:50:23.072Z,34.35
2019-02-25T09:51:23.067Z,36.85
2019-02-25T09:52:23.155Z,37.35
2019-02-25T09:53:23.035Z,36.71
2019-02-25T09:54:23.028Z,35.64
2019-02-25T09:55:23.666Z,34.59
2019-02-25T09:56:23.003Z,34.56
2019-02-25T09:57:22.994Z,34.68
2019-02-25T09:58:22.996Z,34.05
2019-02-25T09:59:22.970Z,32.40
2019-02-25T10:00:22.961Z,34.70
2019-02-25T10:01:22.951Z,34.16
2019-02-25T10:02:24.758Z,33.28
2019-02-25T10:03:22.929Z,32.65
2019-02-25T10:04:22.933Z,34.39
2019-02-25T10:05:22.907Z,34.42
2019-02-25T10:06:22.904Z,33.85
2019-02-25T10:07:22.884Z,33.43
2019-02-25T10:08:22.875Z,34.63
2019-02-25T10:09:29.663Z,34.61
2019-02-25T10:10:23.873Z,35.83
2019-02-25T10:11:22.843Z,34.27
2019-02-25T10:12:22.834Z,34.90
2019-02-25T10:13:22.821Z,33.87
2019-02-25T10:14:22.813Z,33.19
2019-02-25T10:15:22.798Z,32.44
2019-02-25T10:16:22.805Z,32.28
2019-02-25T10:17:24.046Z,34.48
2019-02-25T10:18:22.769Z,34.34
2019-02-25T10:19:22.757Z,33.94
2019-02-25T10:20:22.744Z,33.72
2019-02-25T10:21:22.734Z,32.87
2019-02-25T10:22:22.741Z,31.51
2019-02-25T10:23:22.712Z,31.95
2019-02-25T10:24:22.706Z,33.63
2019-02-25T10:25:22.693Z,33.82
2019-02-25T10:26:22.680Z,33.07
2019-02-25T10:27:22.670Z,32.06
2019-02-25T10:28:22.673Z,34.66
2019-02-25T10:29:22.651Z,33.99
2019-02-25T10:30:22.638Z,32.19
2019-02-25T10:31:22.627Z,32.05
2019-02-25T10:32:23.672Z,33.09
2019-02-25T10:33:22.605Z,34.26
2019-02-25T10:34:24.060Z,34.31
2019-02-25T10:35:24.751Z,33.97
2019-02-25T10:36:22.573Z,32.57
2019-02-25T10:37:22.563Z,32.23
2019-02-25T10:38:22.552Z,32.81
2019-02-25T10:39:22.542Z,32.23
2019-02-25T10:40:24.761Z,33.38
2019-02-25T10:41:23.419Z,34.04
2019-02-25T10:42:22.509Z,34.61
2019-02-25T10:43:22.503Z,33.61
2019-02-25T10:44:22.487Z,31.96
2019-02-25T10:45:22.487Z,31.96
2019-02-25T10:46:22.483Z,31.48
2019-02-25T10:47:22.456Z,32.53
2019-02-25T10:48:23.622Z,33.06
2019-02-25T10:49:24.153Z,33.75
2019-02-25T10:50:22.424Z,32.79
2019-02-25T10:51:22.415Z,33.42
2019-02-25T10:52:22.503Z,32.70
2019-02-25T10:53:22.392Z,33.30
2019-02-25T10:54:23.315Z,33.37
2019-02-25T10:55:22.369Z,31.94
2019-02-25T10:56:23.755Z,31.55
2019-02-25T10:57:24.561Z,32.14
2019-02-25T10:58:22.437Z,30.51
2019-02-25T10:59:22.331Z,30.64
2019-02-25T11:00:22.318Z,32.67
2019-02-25T11:01:24.506Z,30.63
2019-02-25T11:02:22.296Z,30.44
2019-02-25T11:03:22.286Z,31.57
2019-02-25T11:04:23.828Z,32.51
2019-02-25T11:05:23.296Z,32.81
2019-02-25T11:06:22.254Z,31.37
2019-02-25T11:07:22.241Z,32.50
2019-02-25T11:08:22.231Z,32.45
2019-02-25T11:09:22.228Z,30.52
2019-02-25T11:10:22.427Z,33.40
2019-02-25T11:11:23.240Z,32.97
2019-02-25T11:12:23.796Z,31.23
2019-02-25T11:13:22.178Z,32.41
2019-02-25T11:14:22.167Z,32.59
2019-02-25T11:15:22.157Z,32.79
2019-02-25T11:16:22.161Z,33.39
2019-02-25T11:17:22.837Z,32.17
2019-02-25T11:18:24.011Z,30.43
2019-02-25T11:19:22.867Z,31.13
2019-02-25T11:20:22.103Z,32.11
2019-02-25T11:21:22.090Z,31.00
2019-02-25T11:22:22.103Z,30.93
2019-02-25T11:23:22.071Z,31.41
2019-02-25T11:24:23.415Z,30.70
2019-02-25T11:25:24.090Z,31.64
2019-02-25T11:26:23.699Z,31.71
2019-02-25T11:27:22.031Z,30.58
2019-02-25T11:28:25.890Z,29.98
2019-02-25T11:29:22.007Z,31.39
2019-02-25T11:30:23.711Z,30.50
2019-02-25T11:31:24.545Z,30.18
2019-02-25T11:32:23.778Z,30.21
2019-02-25T11:33:22.749Z,31.42
2019-02-25T11:34:21.971Z,30.80
2019-02-25T11:35:21.942Z,30.08
2019-02-25T11:36:22.129Z,31.04
2019-02-25T11:37:24.471Z,30.36
2019-02-25T11:38:23.342Z,31.12
2019-02-25T11:39:21.909Z,31.29
2019-02-25T11:40:21.910Z,31.23
2019-02-25T11:41:21.878Z,32.17
2019-02-25T11:42:21.871Z,32.97
2019-02-25T11:43:21.861Z,33.14
2019-02-25T11:44:23.398Z,30.80
2019-02-25T11:45:21.836Z,32.42
2019-02-25T11:46:21.858Z,30.90
2019-02-25T11:47:21.816Z,31.12
2019-02-25T11:48:22.650Z,31.29
2019-02-25T11:49:21.795Z,29.86
2019-02-25T11:50:21.948Z,30.31
2019-02-25T11:51:21.772Z,30.52
2019-02-25T11:52:21.791Z,30.47
2019-02-25T11:53:21.749Z,31.19
2019-02-25T11:54:21.740Z,31.38
2019-02-25T11:55:22.008Z,30.34
2019-02-25T11:56:21.723Z,31.58
2019-02-25T11:57:21.711Z,30.57
2019-02-25T11:58:21.721Z,30.35
2019-02-25T11:59:21.693Z,31.32
2019-02-25T12:00:21.696Z,32.23
2019-02-25T12:01:21.703Z,30.62
2019-02-25T12:02:25.450Z,31.27
2019-02-25T12:03:21.662Z,30.52
2019-02-25T12:04:21.654Z,30.54
2019-02-25T12:05:21.621Z,29.44
2019-02-25T12:06:21.633Z,30.04
2019-02-25T12:07:21.621Z,30.54
2019-02-25T12:08:21.640Z,29.86
2019-02-25T12:09:21.621Z,30.47
2019-02-25T12:10:21.586Z,30.73
2019-02-25T12:11:21.557Z,30.12
2019-02-25T12:12:21.556Z,29.75
2019-02-25T12:13:21.542Z,29.96
2019-02-25T12:14:21.541Z,30.22
2019-02-25T12:15:21.512Z,29.21
2019-02-25T12:16:21.797Z,29.94
2019-02-25T12:17:21.493Z,32.23
2019-02-25T12:18:21.484Z,33.07
2019-02-25T12:19:21.480Z,32.60
2019-02-25T12:20:21.481Z,31.38
2019-02-25T12:21:21.482Z,32.45
2019-02-25T12:22:21.468Z,33.56
2019-02-25T12:23:21.454Z,32.75
2019-02-25T12:24:21.418Z,31.93
2019-02-25T12:25:21.421Z,31.30
2019-02-25T12:26:21.418Z,31.06
2019-02-25T12:27:21.386Z,30.35
2019-02-25T12:28:21.392Z,30.35
2019-02-25T12:29:21.366Z,29.86
2019-02-25T12:30:21.364Z,30.14
2019-02-25T12:31:21.345Z,30.14
2019-02-25T12:32:26.852Z,30.36
2019-02-25T12:33:28.372Z,32.23
2019-02-25T12:34:21.312Z,32.52
2019-02-25T12:35:21.311Z,31.79
2019-02-25T12:36:21.293Z,31.49
2019-02-25T12:37:21.280Z,32.04
2019-02-25T12:38:21.271Z,32.43
2019-02-25T12:39:21.277Z,31.73
2019-02-25T12:40:21.245Z,32.11
2019-02-25T12:41:21.239Z,31.94
2019-02-25T12:42:21.227Z,32.36
2019-02-25T12:43:21.217Z,33.69
2019-02-25T12:44:21.201Z,32.88
2019-02-25T12:45:21.210Z,33.18
2019-02-25T12:46:21.182Z,32.14
2019-02-25T12:47:21.176Z,32.13
2019-02-25T12:48:22.697Z,32.13
2019-02-25T12:49:21.204Z,32.65
2019-02-25T12:50:21.140Z,32.50
2019-02-25T12:51:21.230Z,31.48
2019-02-25T12:52:21.118Z,31.36
2019-02-25T12:53:21.105Z,31.35